createdAt,value
2023-03-13T00:01:31.313Z,98.80
2023-03-13T00:03:59.655Z,98.80
2023-03-13T00:06:32.326Z,98.70
2023-03-13T00:09:02.277Z,98.60
2023-03-13T00:11:31.985Z,98.60
2023-03-13T00:14:02.246Z,98.60
2023-03-13T00:16:30.944Z,98.50
2023-03-13T00:18:59.989Z,98.50
2023-03-13T00:21:29.917Z,98.50
2023-03-13T00:23:59.886Z,98.50
2023-03-13T00:26:30.183Z,98.50
2023-03-13T00:29:00.442Z,98.40
2023-03-13T00:31:31.083Z,98.40
2023-03-13T00:34:01.456Z,98.40
2023-03-13T00:36:32.126Z,98.40
2023-03-13T00:39:01.203Z,98.30
2023-03-13T00:41:31.149Z,98.40
2023-03-13T00:44:01.354Z,98.30
2023-03-13T00:46:32.747Z,98.30
2023-03-13T00:49:01.021Z,98.30
2023-03-13T00:51:29.841Z,98.40
2023-03-13T00:54:00.504Z,98.40
2023-03-13T00:56:29.718Z,98.40
2023-03-13T00:58:58.232Z,98.40
2023-03-13T01:01:30.048Z,98.30
2023-03-13T01:04:00.038Z,98.20
2023-03-13T01:06:30.529Z,98.20
2023-03-13T01:09:00.196Z,98.20
2023-03-13T01:11:30.281Z,98.10
2023-03-13T01:14:01.117Z,98.00
2023-03-13T01:16:33.143Z,98.00
2023-03-13T01:19:03.378Z,98.00
2023-03-13T01:21:32.125Z,98.00
2023-03-13T01:24:00.505Z,98.00
2023-03-13T01:26:29.207Z,98.00
2023-03-13T01:28:58.114Z,98.10
2023-03-13T01:31:29.302Z,98.10
2023-03-13T01:34:00.881Z,98.00
2023-03-13T01:36:30.483Z,98.00
2023-03-13T01:39:00.948Z,97.90
2023-03-13T01:41:31.241Z,97.80
2023-03-13T01:43:59.645Z,98.20
2023-03-13T01:46:37.098Z,97.80
2023-03-13T01:49:13.848Z,97.80
2023-03-13T01:52:05.028Z,97.70
2023-03-13T01:54:40.348Z,97.70
2023-03-13T01:57:13.265Z,97.70
2023-03-13T01:59:45.376Z,97.70
2023-03-13T02:02:15.987Z,97.60
2023-03-13T02:04:53.180Z,97.60
2023-03-13T02:07:27.971Z,97.60
2023-03-13T02:09:58.838Z,97.60
2023-03-13T02:12:32.382Z,97.60
2023-03-13T02:15:05.306Z,97.70
2023-03-13T02:17:35.823Z,97.60
2023-03-13T02:20:07.163Z,97.60
2023-03-13T02:22:41.255Z,97.60
2023-03-13T02:25:22.994Z,97.50
2023-03-13T02:27:56.255Z,97.50
2023-03-13T02:30:25.853Z,97.50
2023-03-13T02:32:54.348Z,97.40
2023-03-13T02:35:24.625Z,97.40
2023-03-13T02:37:57.359Z,97.40
2023-03-13T02:40:30.545Z,97.40
2023-03-13T02:43:02.717Z,97.30
2023-03-13T02:45:31.225Z,97.30
2023-03-13T02:48:01.017Z,97.30
2023-03-13T02:50:29.815Z,97.30
2023-03-13T02:53:03.088Z,97.30
2023-03-13T02:55:37.749Z,97.20
2023-03-13T02:58:08.040Z,97.20
2023-03-13T03:00:38.638Z,97.20
2023-03-13T03:03:06.868Z,97.20
2023-03-13T03:05:35.283Z,97.10
2023-03-13T03:08:03.508Z,97.00
2023-03-13T03:10:32.396Z,97.00
2023-03-13T03:13:00.725Z,97.00
2023-03-13T03:15:30.730Z,96.80
2023-03-13T03:17:59.005Z,96.80
2023-03-13T03:20:27.249Z,96.90
2023-03-13T03:22:55.508Z,96.90
2023-03-13T03:25:23.822Z,96.90
2023-03-13T03:27:52.128Z,96.80
2023-03-13T03:30:20.978Z,96.80
2023-03-13T03:32:51.067Z,96.80
2023-03-13T03:35:19.442Z,96.70
2023-03-13T03:37:47.812Z,96.70
2023-03-13T03:40:16.628Z,96.60
2023-03-13T03:42:45.591Z,96.60
2023-03-13T03:45:13.981Z,96.50
2023-03-13T03:47:42.364Z,96.50
2023-03-13T03:50:13.138Z,96.50
2023-03-13T03:52:52.041Z,96.50
2023-03-13T03:55:21.242Z,96.50
2023-03-13T03:57:49.562Z,96.40
2023-03-13T04:00:28.739Z,96.40
2023-03-13T04:02:57.362Z,96.30
2023-03-13T04:05:27.016Z,96.30
2023-03-13T04:07:55.566Z,96.40
2023-03-13T04:10:23.880Z,96.30
2023-03-13T04:12:52.472Z,96.30
2023-03-13T04:15:21.039Z,96.30
2023-03-13T04:17:49.940Z,96.20
2023-03-13T04:20:22.564Z,96.20
2023-03-13T04:22:52.307Z,96.20
2023-03-13T04:25:21.896Z,96.20
2023-03-13T04:27:52.745Z,96.20
2023-03-13T04:30:23.922Z,96.10
2023-03-13T04:33:14.797Z,96.00
2023-03-13T04:36:03.084Z,96.00
2023-03-13T04:38:47.884Z,96.00
2023-03-13T04:41:34.826Z,96.00
2023-03-13T04:44:15.068Z,96.00
2023-03-13T04:46:43.336Z,95.90
2023-03-13T04:49:32.104Z,95.90
2023-03-13T04:52:35.630Z,95.90
2023-03-13T04:55:08.862Z,96.00
2023-03-13T04:58:09.244Z,96.00
2023-03-13T05:01:06.082Z,95.90
2023-03-13T05:03:54.790Z,95.80
2023-03-13T05:06:37.720Z,95.80
2023-03-13T05:09:17.969Z,95.80
2023-03-13T05:12:01.705Z,95.70
2023-03-13T05:14:56.537Z,95.70
2023-03-13T05:17:27.379Z,95.70
2023-03-13T05:20:27.781Z,95.60
2023-03-13T05:22:56.593Z,95.60
2023-03-13T05:25:54.167Z,95.60
2023-03-13T05:28:42.269Z,95.70
2023-03-13T05:31:42.657Z,95.70
2023-03-13T05:34:32.487Z,95.70
2023-03-13T05:37:25.770Z,95.60
2023-03-13T05:40:20.967Z,95.60
2023-03-13T05:42:58.110Z,95.60
2023-03-13T05:45:35.266Z,95.50
2023-03-13T05:48:12.467Z,95.60
2023-03-13T05:51:03.661Z,95.50
2023-03-13T05:53:52.106Z,95.90
2023-03-13T05:56:38.695Z,95.50
2023-03-13T05:59:15.461Z,95.90
2023-03-13T06:02:17.213Z,95.50
2023-03-13T06:04:48.374Z,95.50
2023-03-13T06:07:17.040Z,95.60
2023-03-13T06:09:45.470Z,95.60
2023-03-13T06:12:13.801Z,95.60
2023-03-13T06:14:42.246Z,95.60
2023-03-13T06:17:17.543Z,95.60
2023-03-13T06:19:47.173Z,95.50
2023-03-13T06:22:17.082Z,95.50
2023-03-13T06:24:48.946Z,95.50
2023-03-13T06:27:17.443Z,95.60
2023-03-13T06:29:45.771Z,95.60
2023-03-13T06:32:14.074Z,95.60
2023-03-13T06:34:43.807Z,95.40
2023-03-13T06:37:12.498Z,95.70
2023-03-13T06:39:40.698Z,95.40
2023-03-13T06:42:09.212Z,95.40
2023-03-13T06:44:37.487Z,95.30
2023-03-13T06:47:06.028Z,95.30
2023-03-13T06:49:34.458Z,95.20
2023-03-13T06:52:04.072Z,95.20
2023-03-13T06:54:32.396Z,95.10
2023-03-13T06:57:00.625Z,95.10
2023-03-13T06:59:29.070Z,95.00
2023-03-13T07:01:57.514Z,95.00
2023-03-13T07:04:25.784Z,95.10
2023-03-13T07:06:54.043Z,95.10
2023-03-13T07:09:23.660Z,94.90
2023-03-13T07:11:51.930Z,94.90
2023-03-13T07:14:20.183Z,95.10
2023-03-13T07:16:48.557Z,94.90
2023-03-13T07:19:17.245Z,94.80
2023-03-13T07:21:46.982Z,94.70
2023-03-13T07:24:15.256Z,94.70
2023-03-13T07:27:01.587Z,94.80
2023-03-13T07:29:32.396Z,94.80
2023-03-13T07:32:00.692Z,94.70
2023-03-13T07:34:29.081Z,94.60
2023-03-13T07:36:57.517Z,94.60
2023-03-13T07:39:25.888Z,94.70
2023-03-13T07:41:55.499Z,94.70
2023-03-13T07:44:23.768Z,94.70
2023-03-13T07:46:52.132Z,94.60
2023-03-13T07:49:20.403Z,94.50
2023-03-13T07:51:51.083Z,94.70
2023-03-13T07:54:19.588Z,94.50
2023-03-13T07:56:47.815Z,94.50
2023-03-13T07:59:17.397Z,94.40
2023-03-13T08:01:45.918Z,94.30
2023-03-13T08:04:15.140Z,94.10
2023-03-13T08:06:43.620Z,93.90
2023-03-13T08:09:12.009Z,93.90
2023-03-13T08:11:41.508Z,94.00
2023-03-13T08:14:10.016Z,93.90
2023-03-13T08:16:39.905Z,94.00
2023-03-13T08:19:08.235Z,94.00
2023-03-13T08:21:38.349Z,93.90
2023-03-13T08:24:08.613Z,94.00
2023-03-13T08:26:38.870Z,93.90
2023-03-13T08:29:10.082Z,93.70
2023-03-13T08:31:44.101Z,93.80
2023-03-13T08:34:14.039Z,94.30
2023-03-13T08:36:43.216Z,94.50
2023-03-13T08:39:13.798Z,94.60
2023-03-13T08:41:42.552Z,95.40
2023-03-13T08:44:13.320Z,95.70
2023-03-13T08:46:44.048Z,96.20
2023-03-13T08:49:13.451Z,96.70
2023-03-13T08:51:41.993Z,97.00
2023-03-13T08:54:10.991Z,97.10
2023-03-13T08:56:40.986Z,97.10
2023-03-13T08:59:09.408Z,97.00
2023-03-13T09:01:38.355Z,97.00
2023-03-13T09:04:08.617Z,97.00
2023-03-13T09:06:39.118Z,96.80
2023-03-13T09:09:08.420Z,96.90
2023-03-13T09:11:38.248Z,96.90
2023-03-13T09:14:08.305Z,96.80
2023-03-13T09:16:36.883Z,96.70
2023-03-13T09:19:05.558Z,96.50
2023-03-13T09:21:37.264Z,96.50
2023-03-13T09:24:05.618Z,96.40
2023-03-13T09:26:33.828Z,96.40
2023-03-13T09:29:02.213Z,96.60
2023-03-13T09:31:32.931Z,96.60
2023-03-13T09:34:01.931Z,96.60
2023-03-13T09:36:30.471Z,96.70
2023-03-13T09:39:00.998Z,96.60
2023-03-13T09:41:36.300Z,96.70
2023-03-13T09:44:18.783Z,96.80
2023-03-13T09:46:50.801Z,96.60
2023-03-13T09:49:31.250Z,96.70
2023-03-13T09:52:12.348Z,96.60
2023-03-13T09:54:47.186Z,96.50
2023-03-13T09:57:21.144Z,96.50
2023-03-13T09:59:54.690Z,96.50
2023-03-13T10:02:30.877Z,96.40
2023-03-13T10:05:08.597Z,96.30
2023-03-13T10:07:37.506Z,96.20
2023-03-13T10:10:12.752Z,96.40
2023-03-13T10:12:45.892Z,96.80
2023-03-13T10:15:39.770Z,96.70
2023-03-13T10:18:16.962Z,96.60
2023-03-13T10:20:47.890Z,96.40
2023-03-13T10:23:21.422Z,96.10
2023-03-13T10:25:51.134Z,96.30
2023-03-13T10:28:22.547Z,96.20
2023-03-13T10:30:54.769Z,96.20
2023-03-13T10:33:28.009Z,96.30
2023-03-13T10:36:11.488Z,96.30
2023-03-13T10:38:51.384Z,96.70
2023-03-13T10:41:30.455Z,96.50
2023-03-13T10:44:02.404Z,96.90
2023-03-13T10:46:33.167Z,96.70
2023-03-13T10:49:04.238Z,96.60
2023-03-13T10:51:37.702Z,96.70
2023-03-13T10:54:17.137Z,96.60
2023-03-13T10:56:46.817Z,96.80
2023-03-13T10:59:24.709Z,96.60
2023-03-13T11:01:53.965Z,96.50
2023-03-13T11:04:32.414Z,96.70
2023-03-13T11:07:04.601Z,96.60
2023-03-13T11:09:33.371Z,96.50
2023-03-13T11:12:06.583Z,96.70
2023-03-13T11:14:36.103Z,96.50
2023-03-13T11:17:10.776Z,96.50
2023-03-13T11:19:56.346Z,96.60
2023-03-13T11:22:48.483Z,96.70
2023-03-13T11:25:22.337Z,96.80
2023-03-13T11:28:00.176Z,97.20
2023-03-13T11:30:46.349Z,96.80
2023-03-13T11:33:37.875Z,96.70
2023-03-13T11:36:15.615Z,96.50
2023-03-13T11:38:47.739Z,96.50
2023-03-13T11:41:34.384Z,96.50
2023-03-13T11:44:24.909Z,96.60
2023-03-13T11:47:18.022Z,96.50
2023-03-13T11:50:20.776Z,96.30
2023-03-13T11:53:00.608Z,96.40
2023-03-13T11:55:43.476Z,97.00
2023-03-13T11:58:36.232Z,97.60
2023-03-13T12:01:11.535Z,97.60
2023-03-13T12:03:44.870Z,96.80
2023-03-13T12:06:28.394Z,97.90
2023-03-13T12:09:01.840Z,97.40
2023-03-13T12:11:34.273Z,97.20
2023-03-13T12:14:04.955Z,98.00
2023-03-13T12:16:43.504Z,97.80
2023-03-13T12:19:21.569Z,97.20
2023-03-13T12:21:53.919Z,97.30
2023-03-13T12:24:28.201Z,97.20
2023-03-13T12:27:00.493Z,97.20
2023-03-13T12:29:43.620Z,97.90
2023-03-13T12:32:18.014Z,97.20
2023-03-13T12:34:55.373Z,97.00
2023-03-13T12:37:31.641Z,97.10
2023-03-13T12:40:10.441Z,97.10
2023-03-13T12:42:48.524Z,97.10
2023-03-13T12:45:19.960Z,97.30
2023-03-13T12:48:09.262Z,97.40
2023-03-13T12:50:50.960Z,97.60
2023-03-13T12:53:58.685Z,97.40
2023-03-13T12:56:40.957Z,97.20
2023-03-13T12:59:14.505Z,97.20
2023-03-13T13:01:45.979Z,97.30
2023-03-13T13:04:18.805Z,97.30
2023-03-13T13:06:58.040Z,97.50
2023-03-13T13:09:28.717Z,97.50
2023-03-13T13:11:59.299Z,97.90
2023-03-13T13:14:56.112Z,97.30
2023-03-13T13:17:43.182Z,97.20
2023-03-13T13:20:37.991Z,97.40
2023-03-13T13:23:34.874Z,97.60
2023-03-13T13:26:49.002Z,97.60
2023-03-13T13:29:59.804Z,97.50
2023-03-13T13:32:46.878Z,97.40
2023-03-13T13:35:37.792Z,97.40
2023-03-13T13:38:36.672Z,97.60
2023-03-13T13:41:23.512Z,97.80
2023-03-13T13:44:28.687Z,97.90
2023-03-13T13:46:58.903Z,97.80
2023-03-13T13:49:33.641Z,97.70
2023-03-13T13:52:32.291Z,97.70
2023-03-13T13:55:00.782Z,97.70
2023-03-13T13:57:33.694Z,97.50
2023-03-13T14:00:16.185Z,97.60
2023-03-13T14:02:51.234Z,97.90
2023-03-13T14:05:22.868Z,98.00
2023-03-13T14:07:58.470Z,97.90
2023-03-13T14:10:46.817Z,97.90
2023-03-13T14:13:20.784Z,97.70
2023-03-13T14:15:50.877Z,97.70
2023-03-13T14:18:23.413Z,97.80
2023-03-13T14:21:00.132Z,97.90
2023-03-13T14:23:40.068Z,97.90
2023-03-13T14:26:14.841Z,97.90
2023-03-13T14:28:45.123Z,97.90
2023-03-13T14:31:23.569Z,97.90
2023-03-13T14:33:52.064Z,98.20
2023-03-13T14:36:20.289Z,98.40
2023-03-13T14:38:57.950Z,98.50
2023-03-13T14:41:32.207Z,98.30
2023-03-13T14:44:06.514Z,98.10
2023-03-13T14:46:37.230Z,98.10
2023-03-13T14:49:18.374Z,98.30
2023-03-13T14:51:47.594Z,98.10
2023-03-13T14:54:32.337Z,98.00
2023-03-13T14:57:06.282Z,98.20
2023-03-13T14:59:34.585Z,98.20
2023-03-13T15:02:05.531Z,98.30
2023-03-13T15:04:51.156Z,98.30
2023-03-13T15:07:19.947Z,98.20
2023-03-13T15:09:51.116Z,98.00
2023-03-13T15:12:21.759Z,97.90
2023-03-13T15:14:51.457Z,98.20
2023-03-13T15:17:22.201Z,98.40
2023-03-13T15:19:52.792Z,98.50
2023-03-13T15:22:26.347Z,98.40
2023-03-13T15:25:05.805Z,98.60
2023-03-13T15:27:34.857Z,98.40
2023-03-13T15:30:03.129Z,98.40
2023-03-13T15:32:33.829Z,98.60
2023-03-13T15:35:03.415Z,98.50
2023-03-13T15:37:32.270Z,98.40
2023-03-13T15:40:07.480Z,98.40
2023-03-13T15:42:35.768Z,98.40
2023-03-13T15:45:04.064Z,98.30
2023-03-13T15:47:32.297Z,98.50
2023-03-13T15:50:00.685Z,98.50
2023-03-13T15:52:30.346Z,98.70
2023-03-13T15:54:58.631Z,98.70
2023-03-13T15:57:29.375Z,98.60
2023-03-13T15:59:57.520Z,98.70
2023-03-13T16:02:26.270Z,98.60
2023-03-13T16:04:56.037Z,98.50
2023-03-13T16:07:24.455Z,98.50
2023-03-13T16:09:52.776Z,98.60
2023-03-13T16:12:21.031Z,98.60
2023-03-13T16:14:50.628Z,98.70
2023-03-13T16:17:22.039Z,98.70
2023-03-13T16:19:50.278Z,98.70
2023-03-13T16:22:18.568Z,98.70
2023-03-13T16:24:46.846Z,98.80
2023-03-13T16:27:16.861Z,98.70
2023-03-13T16:29:45.383Z,98.80
2023-03-13T16:32:18.725Z,98.60
2023-03-13T16:34:48.612Z,98.80
2023-03-13T16:37:21.335Z,98.70
2023-03-13T16:39:50.705Z,98.90
2023-03-13T16:42:19.345Z,98.60
2023-03-13T16:44:47.557Z,98.90
2023-03-13T16:47:23.110Z,98.90
2023-03-13T16:49:51.460Z,99.10
2023-03-13T16:52:20.940Z,99.30
2023-03-13T16:54:49.282Z,99.40
2023-03-13T16:57:20.864Z,99.30
2023-03-13T16:59:49.082Z,99.40
2023-03-13T17:02:19.039Z,99.50
2023-03-13T17:04:49.616Z,99.40
2023-03-13T17:07:20.623Z,99.50
2023-03-13T17:09:49.026Z,99.40
2023-03-13T17:12:17.573Z,99.50
2023-03-13T17:14:46.521Z,99.40
2023-03-13T17:17:17.685Z,99.30
2023-03-13T17:19:46.332Z,99.30
2023-03-13T17:22:18.457Z,99.20
2023-03-13T17:24:48.536Z,99.40
2023-03-13T17:27:18.107Z,99.50
2023-03-13T17:29:46.448Z,99.60
2023-03-13T17:32:15.944Z,99.40
2023-03-13T17:34:44.250Z,99.20
2023-03-13T17:37:18.673Z,99.30
2023-03-13T17:39:47.758Z,99.60
2023-03-13T17:42:16.387Z,99.50
2023-03-13T17:44:44.661Z,99.40
2023-03-13T17:47:15.650Z,99.60
2023-03-13T17:49:44.368Z,99.90
2023-03-13T17:52:18.754Z,99.90
2023-03-13T17:54:47.364Z,99.90
2023-03-13T17:57:18.050Z,99.90
2023-03-13T17:59:46.824Z,99.90
2023-03-13T18:02:16.978Z,99.90
2023-03-13T18:04:45.777Z,99.90
2023-03-13T18:07:28.781Z,99.90
2023-03-13T18:09:57.114Z,99.90
2023-03-13T18:12:25.279Z,99.90
2023-03-13T18:14:53.493Z,99.90
2023-03-13T18:17:23.982Z,99.90
2023-03-13T18:19:52.655Z,99.90
2023-03-13T18:22:22.636Z,99.90
2023-03-13T18:24:50.860Z,99.90
2023-03-13T18:27:21.222Z,99.90
2023-03-13T18:29:50.632Z,99.90
2023-03-13T18:32:19.907Z,99.90
2023-03-13T18:34:48.340Z,99.90
2023-03-13T18:37:23.800Z,99.90
2023-03-13T18:39:52.188Z,99.90
2023-03-13T18:42:20.532Z,99.90
2023-03-13T18:44:48.859Z,99.90
2023-03-13T18:47:20.759Z,98.30
2023-03-13T18:49:51.007Z,97.70
2023-03-13T18:52:19.571Z,97.50
2023-03-13T18:54:49.366Z,97.30
2023-03-13T18:57:21.014Z,97.60
2023-03-13T18:59:49.106Z,97.80
2023-03-13T19:02:19.215Z,98.00
2023-03-13T19:04:47.885Z,98.10
2023-03-13T19:07:19.469Z,98.20
2023-03-13T19:09:49.021Z,98.20
2023-03-13T19:12:17.225Z,98.40
2023-03-13T19:14:45.436Z,98.30
2023-03-13T19:17:20.179Z,98.20
2023-03-13T19:19:48.492Z,98.30
2023-03-13T19:22:16.840Z,98.30
2023-03-13T19:24:45.121Z,98.30
2023-03-13T19:27:17.062Z,98.20
2023-03-13T19:29:46.254Z,98.30
2023-03-13T19:32:16.584Z,98.40
2023-03-13T19:34:44.931Z,98.60
2023-03-13T19:37:14.423Z,98.30
2023-03-13T19:39:43.122Z,98.40
2023-03-13T19:42:11.432Z,98.50
2023-03-13T19:44:42.153Z,98.60
2023-03-13T19:47:14.460Z,98.50
2023-03-13T19:49:42.974Z,98.40
2023-03-13T19:52:11.383Z,98.40
2023-03-13T19:54:39.630Z,98.50
2023-03-13T19:57:10.825Z,98.60
2023-03-13T19:59:40.490Z,98.60
2023-03-13T20:02:10.046Z,98.50
2023-03-13T20:04:39.551Z,98.50
2023-03-13T20:07:08.296Z,98.50
2023-03-13T20:09:36.901Z,98.60
2023-03-13T20:12:05.938Z,98.70
2023-03-13T20:14:34.248Z,98.60
2023-03-13T20:17:04.446Z,98.60
2023-03-13T20:19:32.963Z,98.60
2023-03-13T20:22:03.742Z,98.60
2023-03-13T20:24:33.602Z,98.60
2023-03-13T20:27:02.066Z,98.90
2023-03-13T20:29:30.278Z,98.60
2023-03-13T20:32:00.366Z,98.50
2023-03-13T20:34:30.004Z,98.60
2023-03-13T20:36:59.951Z,98.70
2023-03-13T20:39:28.791Z,98.60
2023-03-13T20:41:57.488Z,98.60
2023-03-13T20:44:25.811Z,98.70
2023-03-13T20:46:54.396Z,98.50
2023-03-13T20:49:22.629Z,98.50
2023-03-13T20:51:52.531Z,98.50
2023-03-13T20:54:21.905Z,98.40
2023-03-13T20:56:50.376Z,98.30
2023-03-13T20:59:18.584Z,98.20
2023-03-13T21:01:46.888Z,98.30
2023-03-13T21:04:15.261Z,98.20
2023-03-13T21:06:43.480Z,98.60
2023-03-13T21:09:13.510Z,98.30
2023-03-13T21:11:41.756Z,98.30
2023-03-13T21:14:10.051Z,98.90
2023-03-13T21:16:38.342Z,98.40
2023-03-13T21:19:06.577Z,98.70
2023-03-13T21:21:35.041Z,98.90
2023-03-13T21:24:03.603Z,98.90
2023-03-13T21:26:33.558Z,98.80
2023-03-13T21:29:03.488Z,98.80
2023-03-13T21:31:31.890Z,98.90
2023-03-13T21:34:00.148Z,99.00
2023-03-13T21:36:28.437Z,98.80
2023-03-13T21:38:56.635Z,98.70
2023-03-13T21:41:24.904Z,98.60
2023-03-13T21:43:55.900Z,98.40
2023-03-13T21:46:25.296Z,98.50
2023-03-13T21:48:53.589Z,98.50
2023-03-13T21:51:21.807Z,98.40
2023-03-13T21:53:50.260Z,98.40
2023-03-13T21:56:18.472Z,98.30
2023-03-13T21:58:46.985Z,98.40
2023-03-13T22:01:17.557Z,98.40
2023-03-13T22:03:45.916Z,98.30
2023-03-13T22:06:15.389Z,98.30
2023-03-13T22:08:44.217Z,98.20
2023-03-13T22:11:12.595Z,98.00
2023-03-13T22:13:41.132Z,97.90
2023-03-13T22:16:11.483Z,97.70
2023-03-13T22:18:41.906Z,98.20
2023-03-13T22:21:10.141Z,97.80
2023-03-13T22:23:38.384Z,96.10
2023-03-13T22:26:07.163Z,95.80
2023-03-13T22:28:35.408Z,95.90
2023-03-13T22:31:04.285Z,95.80
2023-03-13T22:33:33.561Z,95.80
2023-03-13T22:36:03.213Z,96.10
2023-03-13T22:38:31.550Z,96.30
2023-03-13T22:41:01.123Z,96.60
2023-03-13T22:43:29.681Z,96.80
2023-03-13T22:45:59.072Z,97.00
2023-03-13T22:48:27.803Z,97.30
2023-03-13T22:51:08.530Z,97.50
2023-03-13T22:53:38.372Z,97.50
2023-03-13T22:56:09.943Z,97.70
2023-03-13T22:58:38.338Z,97.80
2023-03-13T23:01:08.006Z,97.90
2023-03-13T23:03:36.372Z,98.30
2023-03-13T23:06:08.948Z,98.70
2023-03-13T23:08:37.406Z,99.10
2023-03-13T23:11:06.839Z,99.50
2023-03-13T23:13:35.332Z,99.90
2023-03-13T23:16:07.587Z,99.90
2023-03-13T23:18:36.704Z,99.90
2023-03-13T23:21:08.413Z,99.90
2023-03-13T23:23:36.929Z,99.90
2023-03-13T23:26:08.097Z,99.90
2023-03-13T23:28:37.141Z,99.90
2023-03-13T23:31:11.493Z,99.90
2023-03-13T23:34:12.968Z,99.90
2023-03-13T23:36:51.323Z,99.90
2023-03-13T23:39:42.133Z,99.90
2023-03-13T23:42:16.452Z,99.90
2023-03-13T23:44:52.310Z,99.90
2023-03-13T23:47:33.426Z,99.90
2023-03-13T23:50:09.740Z,99.90
2023-03-13T23:53:14.545Z,99.90
2023-03-13T23:55:57.371Z,99.90
2023-03-13T23:59:15.754Z,99.90
